Terminal Aerodrome Forecast
Issued by NWS

Home | Current Version | Previous Version | Text Only | Print | Product List | Glossary On
Versions: 1 2 3 4 5 6 7 8 9 10 11 12 13 14
000
FTUS44 KLUB 291100
TAFCDS
TAF
KCDS 291100Z 2912/3012 15011KT P6SM BKN040
      TEMPO 2919/2923 VRB20G40KT TSRA BKN040CB
     FM292300 06015KT P6SM SCT035 BKN200=

USA.gov is the U.S. government's official web portal to all federal, state and local government web resources and services.